Findlay Airport
KFDY : now visible

Aeroporto :











RITROVATECI SU...

 
LOGIN :

Iscrizione | Disclaimer

   EN    FR    IT 

 









Sommario :    VFR   VFR Marginale   IFR   IFR Intensivo   IFR Molto Intensivo
Visibilità : 
Base nubi : 
>= 8 km
>= 3000ft
5 / 8 km
1000 / 3000 ft
1500m / 5 km
500 / 1000 ft
800 / 1500m
200 / 500 ft
< 800m
< 200 ft
Simboli :   Temporali  Nebbia  Neve Forte  Precipitazioni Forti  Vento > 20 kt






- Altitudine del aeroporto : 813 ft


KFDY - Findlay

ULTIMO METAR :
  • 272053Z AUTO 28009KT 10SM OVC013 02/00 A2990 RMK AO2 SLP127 T00220000 53003

METARs OBSOLETI :
  • 271953Z AUTO 28010KT 8SM OVC012 02/M01 A2988 RMK AO2 SLP122 T00221006
  • 271853Z AUTO 27009KT 8SM OVC014 02/M01 A2988 RMK AO2 SLP121 T00221006
  • 271803Z AUTO 28008KT 6SM BR BKN011 OVC017 02/00 A2988 RMK AO2 T00220000

TAF KFDY
Valido dal 27 a 18 ore il 28 a 18 ore UTC


271742Z 2718/2818 29008KT 5SM BR OVC015
FM271900 28008KT P6SM OVC015
FM281300 30007KT P6SM OVC020



MetMap, La meteo Aeronautica in un colpo d'occhio ! - Copyright ORBIFLY Dicembre 2007 - Disclaimer

ORBIFLY MET'MAP TEAM :

Programmazione e sviluppo : Alexandra Zaïnal
Concezione : Baudouin d'Aumeries
Aiuto per la programmazione : Marc-Olivier Méhu
Supporto tecnico e logistico : Manuel Goepfert
Aiuto per la traduzione : Arnaldo La Scala

Contatto : metmap@orbifly.com




FONTI E CREDITI :

   NOAA       Earth
Advisory